sensor_id;sensor_type;location;lat;lon;timestamp;pressure;altitude;pressure_sealevel;temperature;humidity
43147;BME280;28752;48.266;7.402;2022-12-31T00:01:15;99318.41;;;12.20;100.00
43147;BME280;28752;48.266;7.402;2022-12-31T00:03:43;99325.09;;;12.24;100.00
43147;BME280;28752;48.266;7.402;2022-12-31T00:06:30;99333.72;;;12.26;100.00
43147;BME280;28752;48.266;7.402;2022-12-31T00:08:58;99333.88;;;12.25;100.00
43147;BME280;28752;48.266;7.402;2022-12-31T00:11:25;99328.06;;;12.21;100.00
43147;BME280;28752;48.266;7.402;2022-12-31T00:13:51;99340.69;;;12.27;100.00
43147;BME280;28752;48.266;7.402;2022-12-31T00:16:27;99335.53;;;12.26;100.00
43147;BME280;28752;48.266;7.402;2022-12-31T00:18:54;99343.38;;;12.36;100.00
43147;BME280;28752;48.266;7.402;2022-12-31T00:21:21;99334.34;;;12.20;100.00
43147;BME280;28752;48.266;7.402;2022-12-31T00:23:47;99335.50;;;12.18;100.00
43147;BME280;28752;48.266;7.402;2022-12-31T00:26:15;99318.50;;;12.02;100.00
43147;BME280;28752;48.266;7.402;2022-12-31T00:28:42;99328.59;;;11.99;100.00
43147;BME280;28752;48.266;7.402;2022-12-31T00:31:10;99320.16;;;12.03;100.00
43147;BME280;28752;48.266;7.402;2022-12-31T00:33:36;99332.06;;;11.99;100.00
43147;BME280;28752;48.266;7.402;2022-12-31T00:36:10;99328.25;;;11.94;100.00
43147;BME280;28752;48.266;7.402;2022-12-31T00:38:36;99320.47;;;12.00;100.00
43147;BME280;28752;48.266;7.402;2022-12-31T00:41:02;99338.91;;;12.02;100.00
43147;BME280;28752;48.266;7.402;2022-12-31T00:43:28;99328.78;;;12.05;100.00
43147;BME280;28752;48.266;7.402;2022-12-31T00:45:53;99319.75;;;12.16;100.00
43147;BME280;28752;48.266;7.402;2022-12-31T00:48:19;99343.00;;;12.22;100.00
43147;BME280;28752;48.266;7.402;2022-12-31T00:50:44;99346.63;;;12.21;100.00
43147;BME280;28752;48.266;7.402;2022-12-31T00:53:10;99351.00;;;12.31;100.00
43147;BME280;28752;48.266;7.402;2022-12-31T00:55:35;99349.78;;;12.25;100.00
43147;BME280;28752;48.266;7.402;2022-12-31T00:58:01;99373.09;;;12.39;100.00
43147;BME280;28752;48.266;7.402;2022-12-31T01:00:26;99356.19;;;12.40;100.00
43147;BME280;28752;48.266;7.402;2022-12-31T01:02:51;99367.34;;;12.52;99.51
43147;BME280;28752;48.266;7.402;2022-12-31T01:05:17;99367.53;;;12.59;99.54
43147;BME280;28752;48.266;7.402;2022-12-31T01:07:42;99378.50;;;12.56;98.60
43147;BME280;28752;48.266;7.402;2022-12-31T01:10:08;99397.28;;;12.62;97.86
43147;BME280;28752;48.266;7.402;2022-12-31T01:12:33;99378.34;;;12.66;96.43
43147;BME280;28752;48.266;7.402;2022-12-31T01:14:59;99375.91;;;12.80;95.68
43147;BME280;28752;48.266;7.402;2022-12-31T01:17:24;99393.53;;;12.82;95.69
43147;BME280;28752;48.266;7.402;2022-12-31T01:19:49;99408.34;;;12.92;95.66
43147;BME280;28752;48.266;7.402;2022-12-31T01:22:15;99376.44;;;12.92;94.60
43147;BME280;28752;48.266;7.402;2022-12-31T01:24:40;99398.22;;;12.96;94.92
43147;BME280;28752;48.266;7.402;2022-12-31T01:27:05;99395.06;;;13.01;94.76
43147;BME280;28752;48.266;7.402;2022-12-31T01:29:31;99410.88;;;13.10;94.40
43147;BME280;28752;48.266;7.402;2022-12-31T01:31:56;99408.72;;;13.14;94.23
43147;BME280;28752;48.266;7.402;2022-12-31T01:34:22;99389.28;;;13.22;94.14
43147;BME280;28752;48.266;7.402;2022-12-31T01:36:47;99393.78;;;13.29;93.90
43147;BME280;28752;48.266;7.402;2022-12-31T01:39:12;99383.81;;;13.23;94.76
43147;BME280;28752;48.266;7.402;2022-12-31T01:41:44;99387.03;;;13.35;94.91
43147;BME280;28752;48.266;7.402;2022-12-31T01:49:22;99391.19;;;13.38;94.89
43147;BME280;28752;48.266;7.402;2022-12-31T01:52:00;99412.47;;;13.46;94.51
43147;BME280;28752;48.266;7.402;2022-12-31T01:54:28;99413.28;;;13.46;94.83
43147;BME280;28752;48.266;7.402;2022-12-31T01:56:55;99407.97;;;13.38;94.73
43147;BME280;28752;48.266;7.402;2022-12-31T01:59:21;99419.25;;;13.40;94.66
43147;BME280;28752;48.266;7.402;2022-12-31T02:01:48;99418.94;;;13.35;94.84
43147;BME280;28752;48.266;7.402;2022-12-31T02:04:21;99409.13;;;13.36;95.37
43147;BME280;28752;48.266;7.402;2022-12-31T02:07:05;99405.13;;;13.40;94.90
43147;BME280;28752;48.266;7.402;2022-12-31T02:09:32;99429.56;;;13.35;94.66
43147;BME280;28752;48.266;7.402;2022-12-31T02:11:58;99426.22;;;13.33;95.09
43147;BME280;28752;48.266;7.402;2022-12-31T02:14:30;99430.75;;;13.41;94.04
43147;BME280;28752;48.266;7.402;2022-12-31T02:30:31;99428.84;;;13.25;97.11
43147;BME280;28752;48.266;7.402;2022-12-31T02:35:40;99444.84;;;13.33;96.94
43147;BME280;28752;48.266;7.402;2022-12-31T02:38:12;99443.31;;;13.30;97.18
43147;BME280;28752;48.266;7.402;2022-12-31T02:40:39;99445.47;;;13.27;97.52
43147;BME280;28752;48.266;7.402;2022-12-31T02:43:05;99440.66;;;13.30;97.09
43147;BME280;28752;48.266;7.402;2022-12-31T02:45:38;99437.00;;;13.31;97.61
43147;BME280;28752;48.266;7.402;2022-12-31T02:56:34;99443.19;;;13.40;97.18
43147;BME280;28752;48.266;7.402;2022-12-31T03:01:59;99431.06;;;13.38;97.40
43147;BME280;28752;48.266;7.402;2022-12-31T03:04:40;99431.91;;;13.38;97.43
43147;BME280;28752;48.266;7.402;2022-12-31T03:07:11;99436.22;;;13.39;97.39
43147;BME280;28752;48.266;7.402;2022-12-31T03:09:38;99438.84;;;13.31;98.78
43147;BME280;28752;48.266;7.402;2022-12-31T03:12:06;99429.19;;;13.30;99.25
43147;BME280;28752;48.266;7.402;2022-12-31T03:14:51;99430.03;;;13.30;99.76
43147;BME280;28752;48.266;7.402;2022-12-31T03:17:16;99432.50;;;13.24;100.00
43147;BME280;28752;48.266;7.402;2022-12-31T03:19:42;99431.31;;;13.10;100.00
43147;BME280;28752;48.266;7.402;2022-12-31T03:22:27;99448.44;;;13.15;100.00
43147;BME280;28752;48.266;7.402;2022-12-31T03:25:14;99448.59;;;13.06;100.00
43147;BME280;28752;48.266;7.402;2022-12-31T03:28:05;99452.88;;;12.98;100.00
43147;BME280;28752;48.266;7.402;2022-12-31T03:30:32;99455.22;;;13.02;100.00
43147;BME280;28752;48.266;7.402;2022-12-31T03:32:58;99461.19;;;13.04;100.00
43147;BME280;28752;48.266;7.402;2022-12-31T03:35:24;99466.16;;;12.98;100.00
43147;BME280;28752;48.266;7.402;2022-12-31T03:37:51;99456.34;;;12.99;100.00
43147;BME280;28752;48.266;7.402;2022-12-31T03:40:18;99450.06;;;13.00;100.00
43147;BME280;28752;48.266;7.402;2022-12-31T03:42:44;99445.06;;;12.97;100.00
43147;BME280;28752;48.266;7.402;2022-12-31T03:45:10;99453.19;;;12.95;100.00
43147;BME280;28752;48.266;7.402;2022-12-31T03:47:36;99444.03;;;12.90;100.00
43147;BME280;28752;48.266;7.402;2022-12-31T03:50:03;99459.31;;;12.88;100.00
43147;BME280;28752;48.266;7.402;2022-12-31T03:52:29;99451.94;;;12.73;100.00
43147;BME280;28752;48.266;7.402;2022-12-31T03:54:54;99458.94;;;12.83;100.00
43147;BME280;28752;48.266;7.402;2022-12-31T03:57:20;99459.09;;;12.73;100.00
43147;BME280;28752;48.266;7.402;2022-12-31T03:59:45;99456.75;;;12.70;100.00
43147;BME280;28752;48.266;7.402;2022-12-31T04:02:11;99454.28;;;12.76;100.00
43147;BME280;28752;48.266;7.402;2022-12-31T04:04:36;99450.13;;;12.74;100.00
43147;BME280;28752;48.266;7.402;2022-12-31T04:07:01;99458.44;;;12.79;100.00
43147;BME280;28752;48.266;7.402;2022-12-31T04:09:27;99447.47;;;12.74;100.00
43147;BME280;28752;48.266;7.402;2022-12-31T04:11:52;99468.25;;;12.78;100.00
43147;BME280;28752;48.266;7.402;2022-12-31T04:14:18;99463.91;;;12.77;100.00
43147;BME280;28752;48.266;7.402;2022-12-31T04:16:44;99442.66;;;12.77;100.00
43147;BME280;28752;48.266;7.402;2022-12-31T04:19:10;99458.84;;;12.92;100.00
43147;BME280;28752;48.266;7.402;2022-12-31T04:21:36;99463.66;;;12.97;100.00
43147;BME280;28752;48.266;7.402;2022-12-31T04:24:01;99464.66;;;12.96;100.00
43147;BME280;28752;48.266;7.402;2022-12-31T04:26:27;99451.69;;;12.93;100.00
43147;BME280;28752;48.266;7.402;2022-12-31T04:28:53;99461.66;;;12.99;100.00
43147;BME280;28752;48.266;7.402;2022-12-31T04:31:18;99455.53;;;12.98;100.00
43147;BME280;28752;48.266;7.402;2022-12-31T04:33:44;99462.31;;;12.93;100.00
43147;BME280;28752;48.266;7.402;2022-12-31T04:36:09;99451.19;;;12.89;100.00
43147;BME280;28752;48.266;7.402;2022-12-31T04:38:35;99454.31;;;12.85;100.00
43147;BME280;28752;48.266;7.402;2022-12-31T04:41:00;99444.84;;;12.90;100.00
43147;BME280;28752;48.266;7.402;2022-12-31T04:43:42;99448.16;;;12.84;100.00
43147;BME280;28752;48.266;7.402;2022-12-31T04:46:08;99435.19;;;12.81;100.00
43147;BME280;28752;48.266;7.402;2022-12-31T04:48:34;99441.84;;;12.77;100.00
43147;BME280;28752;48.266;7.402;2022-12-31T04:50:59;99430.69;;;12.73;100.00
43147;BME280;28752;48.266;7.402;2022-12-31T04:53:25;99437.44;;;12.68;100.00
43147;BME280;28752;48.266;7.402;2022-12-31T04:55:51;99432.47;;;12.65;100.00
43147;BME280;28752;48.266;7.402;2022-12-31T04:58:16;99438.78;;;12.64;100.00
43147;BME280;28752;48.266;7.402;2022-12-31T05:00:42;99436.28;;;12.62;100.00
43147;BME280;28752;48.266;7.402;2022-12-31T05:03:10;99442.59;;;12.61;100.00
43147;BME280;28752;48.266;7.402;2022-12-31T05:05:39;99459.00;;;12.56;100.00
43147;BME280;28752;48.266;7.402;2022-12-31T05:08:07;99446.53;;;12.57;100.00
43147;BME280;28752;48.266;7.402;2022-12-31T05:10:32;99441.19;;;12.49;100.00
43147;BME280;28752;48.266;7.402;2022-12-31T05:12:57;99448.19;;;12.50;100.00
43147;BME280;28752;48.266;7.402;2022-12-31T05:15:23;99449.00;;;12.50;100.00
43147;BME280;28752;48.266;7.402;2022-12-31T05:17:48;99469.59;;;12.48;100.00
43147;BME280;28752;48.266;7.402;2022-12-31T05:20:14;99474.91;;;12.48;100.00
43147;BME280;28752;48.266;7.402;2022-12-31T05:22:39;99479.34;;;12.48;100.00
43147;BME280;28752;48.266;7.402;2022-12-31T05:25:05;99485.53;;;12.48;100.00
43147;BME280;28752;48.266;7.402;2022-12-31T05:27:30;99479.50;;;12.46;100.00
43147;BME280;28752;48.266;7.402;2022-12-31T05:29:56;99476.81;;;12.38;100.00
43147;BME280;28752;48.266;7.402;2022-12-31T05:32:21;99496.50;;;12.27;100.00
43147;BME280;28752;48.266;7.402;2022-12-31T05:34:46;99504.97;;;12.31;100.00
43147;BME280;28752;48.266;7.402;2022-12-31T05:37:12;99497.81;;;12.31;100.00
43147;BME280;28752;48.266;7.402;2022-12-31T05:39:37;99497.91;;;12.39;100.00
43147;BME280;28752;48.266;7.402;2022-12-31T05:42:03;99485.59;;;12.38;100.00
43147;BME280;28752;48.266;7.402;2022-12-31T05:44:28;99481.00;;;12.40;99.42
43147;BME280;28752;48.266;7.402;2022-12-31T05:46:53;99484.41;;;12.33;100.00
43147;BME280;28752;48.266;7.402;2022-12-31T05:49:19;99462.03;;;12.35;100.00
43147;BME280;28752;48.266;7.402;2022-12-31T05:51:44;99461.97;;;12.27;100.00
43147;BME280;28752;48.266;7.402;2022-12-31T05:54:10;99448.72;;;12.27;100.00
43147;BME280;28752;48.266;7.402;2022-12-31T05:56:35;99444.41;;;12.08;100.00
43147;BME280;28752;48.266;7.402;2022-12-31T05:59:00;99462.84;;;12.09;100.00
43147;BME280;28752;48.266;7.402;2022-12-31T06:01:25;99467.25;;;12.01;100.00
43147;BME280;28752;48.266;7.402;2022-12-31T06:03:51;99467.56;;;11.98;100.00
43147;BME280;28752;48.266;7.402;2022-12-31T06:06:16;99465.81;;;11.88;100.00
43147;BME280;28752;48.266;7.402;2022-12-31T06:08:41;99458.16;;;11.85;100.00
43147;BME280;28752;48.266;7.402;2022-12-31T06:11:07;99459.78;;;11.78;100.00
43147;BME280;28752;48.266;7.402;2022-12-31T06:13:32;99445.97;;;11.56;100.00
43147;BME280;28752;48.266;7.402;2022-12-31T06:16:06;99464.78;;;11.63;100.00
43147;BME280;28752;48.266;7.402;2022-12-31T06:18:32;99472.72;;;11.63;100.00
43147;BME280;28752;48.266;7.402;2022-12-31T06:20:57;99466.34;;;11.56;100.00
43147;BME280;28752;48.266;7.402;2022-12-31T06:23:23;99467.31;;;11.55;100.00
43147;BME280;28752;48.266;7.402;2022-12-31T06:25:48;99476.75;;;11.49;100.00
43147;BME280;28752;48.266;7.402;2022-12-31T06:28:14;99488.06;;;11.42;100.00
43147;BME280;28752;48.266;7.402;2022-12-31T06:30:39;99486.28;;;11.42;100.00
43147;BME280;28752;48.266;7.402;2022-12-31T06:33:05;99485.97;;;11.45;100.00
43147;BME280;28752;48.266;7.402;2022-12-31T06:35:30;99493.63;;;11.48;100.00
43147;BME280;28752;48.266;7.402;2022-12-31T06:37:55;99477.16;;;11.45;100.00
43147;BME280;28752;48.266;7.402;2022-12-31T06:40:21;99500.81;;;11.56;100.00
43147;BME280;28752;48.266;7.402;2022-12-31T06:42:46;99497.13;;;11.67;100.00
43147;BME280;28752;48.266;7.402;2022-12-31T06:45:11;99501.28;;;11.69;100.00
43147;BME280;28752;48.266;7.402;2022-12-31T06:47:37;99498.94;;;11.84;100.00
43147;BME280;28752;48.266;7.402;2022-12-31T06:50:02;99501.75;;;12.01;99.11
43147;BME280;28752;48.266;7.402;2022-12-31T06:52:28;99510.16;;;12.14;98.73
43147;BME280;28752;48.266;7.402;2022-12-31T06:54:53;99523.03;;;12.27;97.23
43147;BME280;28752;48.266;7.402;2022-12-31T06:57:19;99521.88;;;12.30;97.15
43147;BME280;28752;48.266;7.402;2022-12-31T06:59:45;99519.22;;;12.30;97.44
43147;BME280;28752;48.266;7.402;2022-12-31T07:15:11;99516.25;;;12.85;91.52
43147;BME280;28752;48.266;7.402;2022-12-31T07:18:18;99500.66;;;12.90;90.57
43147;BME280;28752;48.266;7.402;2022-12-31T07:20:45;99500.72;;;13.07;88.80
43147;BME280;28752;48.266;7.402;2022-12-31T07:23:10;99497.47;;;13.89;82.65
43147;BME280;28752;48.266;7.402;2022-12-31T07:25:40;99524.25;;;13.87;84.10
43147;BME280;28752;48.266;7.402;2022-12-31T07:28:18;99520.25;;;13.99;82.17
43147;BME280;28752;48.266;7.402;2022-12-31T07:31:05;99516.09;;;14.13;82.06
43147;BME280;28752;48.266;7.402;2022-12-31T07:33:41;99510.78;;;14.05;82.71
43147;BME280;28752;48.266;7.402;2022-12-31T07:45:23;99527.03;;;13.69;84.98
43147;BME280;28752;48.266;7.402;2022-12-31T07:47:27;99526.75;;;13.80;84.02
43147;BME280;28752;48.266;7.402;2022-12-31T07:49:53;99537.22;;;13.82;83.58
43147;BME280;28752;48.266;7.402;2022-12-31T07:52:19;99512.75;;;13.78;82.63
43147;BME280;28752;48.266;7.402;2022-12-31T07:54:45;99529.88;;;13.92;82.92
43147;BME280;28752;48.266;7.402;2022-12-31T07:57:12;99525.22;;;13.86;83.66
43147;BME280;28752;48.266;7.402;2022-12-31T08:00:14;99528.22;;;13.83;83.11
43147;BME280;28752;48.266;7.402;2022-12-31T08:08:10;99547.47;;;13.60;85.20
43147;BME280;28752;48.266;7.402;2022-12-31T08:13:12;99558.91;;;13.53;85.55
43147;BME280;28752;48.266;7.402;2022-12-31T08:15:39;99551.59;;;13.46;85.62
43147;BME280;28752;48.266;7.402;2022-12-31T08:18:06;99563.34;;;13.36;86.75
43147;BME280;28752;48.266;7.402;2022-12-31T08:20:33;99558.31;;;13.32;86.92
43147;BME280;28752;48.266;7.402;2022-12-31T08:26:02;99575.66;;;13.37;86.85
43147;BME280;28752;48.266;7.402;2022-12-31T08:32:05;99574.53;;;13.47;86.45
43147;BME280;28752;48.266;7.402;2022-12-31T08:42:53;99564.56;;;13.49;86.68
43147;BME280;28752;48.266;7.402;2022-12-31T08:45:37;99567.28;;;13.58;86.24
43147;BME280;28752;48.266;7.402;2022-12-31T08:50:47;99558.63;;;13.72;85.92
43147;BME280;28752;48.266;7.402;2022-12-31T08:53:13;99558.84;;;13.79;86.23
43147;BME280;28752;48.266;7.402;2022-12-31T08:55:40;99547.38;;;13.95;84.61
43147;BME280;28752;48.266;7.402;2022-12-31T09:00:53;99566.53;;;14.23;84.25
43147;BME280;28752;48.266;7.402;2022-12-31T09:06:18;99572.53;;;14.33;82.72
43147;BME280;28752;48.266;7.402;2022-12-31T09:11:38;99564.53;;;14.33;82.68
43147;BME280;28752;48.266;7.402;2022-12-31T09:19:51;99570.50;;;14.44;82.12
43147;BME280;28752;48.266;7.402;2022-12-31T09:22:17;99567.34;;;14.40;82.98
43147;BME280;28752;48.266;7.402;2022-12-31T09:24:42;99573.19;;;14.44;82.80
43147;BME280;28752;48.266;7.402;2022-12-31T09:32:14;99585.69;;;14.68;81.25
43147;BME280;28752;48.266;7.402;2022-12-31T09:34:58;99584.34;;;14.72;81.22
43147;BME280;28752;48.266;7.402;2022-12-31T09:37:48;99590.31;;;14.74;81.52
43147;BME280;28752;48.266;7.402;2022-12-31T09:45:57;99579.84;;;14.81;82.68
43147;BME280;28752;48.266;7.402;2022-12-31T10:01:30;99584.25;;;15.21;81.31
43147;BME280;28752;48.266;7.402;2022-12-31T10:07:08;99587.50;;;15.32;80.89
43147;BME280;28752;48.266;7.402;2022-12-31T10:10:33;99590.47;;;15.45;80.67
43147;BME280;28752;48.266;7.402;2022-12-31T10:13:34;99581.59;;;15.53;79.70
43147;BME280;28752;48.266;7.402;2022-12-31T10:16:08;99578.44;;;15.49;80.46
43147;BME280;28752;48.266;7.402;2022-12-31T11:01:45;99499.69;;;16.23;78.51
43147;BME280;28752;48.266;7.402;2022-12-31T11:07:32;99486.09;;;16.32;78.20
43147;BME280;28752;48.266;7.402;2022-12-31T11:13:15;99478.47;;;16.29;77.65
43147;BME280;28752;48.266;7.402;2022-12-31T11:27:06;99474.84;;;16.22;78.27
43147;BME280;28752;48.266;7.402;2022-12-31T11:33:06;99454.41;;;16.29;78.34
43147;BME280;28752;48.266;7.402;2022-12-31T11:38:29;99476.06;;;16.49;76.79
43147;BME280;28752;48.266;7.402;2022-12-31T11:41:04;99450.91;;;16.44;76.55
43147;BME280;28752;48.266;7.402;2022-12-31T11:49:11;99451.19;;;16.64;74.66
43147;BME280;28752;48.266;7.402;2022-12-31T11:57:38;99430.84;;;16.63;75.07
43147;BME280;28752;48.266;7.402;2022-12-31T12:00:17;99451.09;;;16.72;75.42
43147;BME280;28752;48.266;7.402;2022-12-31T12:02:49;99450.25;;;16.72;75.63
43147;BME280;28752;48.266;7.402;2022-12-31T12:05:18;99450.34;;;16.78;75.58
43147;BME280;28752;48.266;7.402;2022-12-31T12:07:46;99446.03;;;16.77;75.80
43147;BME280;28752;48.266;7.402;2022-12-31T12:12:53;99441.88;;;16.90;74.68
43147;BME280;28752;48.266;7.402;2022-12-31T12:15:23;99438.22;;;16.91;74.12
43147;BME280;28752;48.266;7.402;2022-12-31T12:17:56;99443.06;;;17.02;74.04
43147;BME280;28752;48.266;7.402;2022-12-31T12:20:29;99425.25;;;17.09;73.15
43147;BME280;28752;48.266;7.402;2022-12-31T12:22:58;99426.72;;;17.12;73.17
43147;BME280;28752;48.266;7.402;2022-12-31T12:25:26;99424.69;;;17.14;72.61
43147;BME280;28752;48.266;7.402;2022-12-31T12:28:10;99419.63;;;17.19;73.41
43147;BME280;28752;48.266;7.402;2022-12-31T12:30:41;99423.53;;;17.23;73.12
43147;BME280;28752;48.266;7.402;2022-12-31T12:33:16;99419.25;;;17.22;73.75
43147;BME280;28752;48.266;7.402;2022-12-31T12:35:42;99422.97;;;17.28;73.73
43147;BME280;28752;48.266;7.402;2022-12-31T12:38:16;99417.75;;;17.19;72.76
43147;BME280;28752;48.266;7.402;2022-12-31T12:40:52;99408.06;;;17.18;72.73
43147;BME280;28752;48.266;7.402;2022-12-31T12:43:44;99411.22;;;17.22;73.15
43147;BME280;28752;48.266;7.402;2022-12-31T12:46:51;99405.47;;;17.25;72.50
43147;BME280;28752;48.266;7.402;2022-12-31T12:49:47;99394.31;;;17.21;72.36
43147;BME280;28752;48.266;7.402;2022-12-31T13:00:04;99415.22;;;17.33;72.49
43147;BME280;28752;48.266;7.402;2022-12-31T13:13:17;99419.72;;;17.32;72.72
43147;BME280;28752;48.266;7.402;2022-12-31T13:21:23;99425.59;;;17.21;74.46
43147;BME280;28752;48.266;7.402;2022-12-31T13:23:57;99424.50;;;17.15;74.70
43147;BME280;28752;48.266;7.402;2022-12-31T13:26:47;99408.75;;;17.05;74.54
43147;BME280;28752;48.266;7.402;2022-12-31T13:29:22;99409.41;;;16.93;74.48
43147;BME280;28752;48.266;7.402;2022-12-31T13:31:49;99420.38;;;17.13;75.07
43147;BME280;28752;48.266;7.402;2022-12-31T13:34:22;99421.47;;;17.03;75.32
43147;BME280;28752;48.266;7.402;2022-12-31T13:36:51;99420.28;;;17.06;76.03
43147;BME280;28752;48.266;7.402;2022-12-31T13:39:23;99418.34;;;17.00;76.20
43147;BME280;28752;48.266;7.402;2022-12-31T13:42:10;99416.06;;;16.97;75.75
43147;BME280;28752;48.266;7.402;2022-12-31T13:44:43;99413.31;;;16.90;76.06
43147;BME280;28752;48.266;7.402;2022-12-31T13:47:20;99432.03;;;16.90;76.71
43147;BME280;28752;48.266;7.402;2022-12-31T13:49:56;99430.25;;;16.82;76.99
43147;BME280;28752;48.266;7.402;2022-12-31T13:52:40;99423.63;;;16.78;75.62
43147;BME280;28752;48.266;7.402;2022-12-31T13:55:16;99424.00;;;16.75;72.79
43147;BME280;28752;48.266;7.402;2022-12-31T13:57:51;99430.38;;;16.89;69.78
43147;BME280;28752;48.266;7.402;2022-12-31T14:00:29;99424.06;;;16.82;69.55
43147;BME280;28752;48.266;7.402;2022-12-31T14:03:21;99436.72;;;16.88;69.85
43147;BME280;28752;48.266;7.402;2022-12-31T14:05:55;99441.41;;;16.86;69.75
43147;BME280;28752;48.266;7.402;2022-12-31T14:08:22;99451.19;;;16.94;68.56
43147;BME280;28752;48.266;7.402;2022-12-31T14:11:11;99455.72;;;16.93;69.11
43147;BME280;28752;48.266;7.402;2022-12-31T14:27:51;99446.75;;;16.71;68.99
43147;BME280;28752;48.266;7.402;2022-12-31T14:30:20;99446.31;;;16.67;68.55
43147;BME280;28752;48.266;7.402;2022-12-31T14:35:35;99448.97;;;16.52;69.25
43147;BME280;28752;48.266;7.402;2022-12-31T14:41:38;99451.56;;;16.46;68.85
43147;BME280;28752;48.266;7.402;2022-12-31T14:44:36;99456.44;;;16.42;69.26
43147;BME280;28752;48.266;7.402;2022-12-31T14:50:12;99439.19;;;16.30;67.46
43147;BME280;28752;48.266;7.402;2022-12-31T14:55:32;99435.44;;;16.39;66.19
43147;BME280;28752;48.266;7.402;2022-12-31T14:58:00;99446.75;;;16.41;65.58
43147;BME280;28752;48.266;7.402;2022-12-31T15:00:37;99442.31;;;16.33;66.61
43147;BME280;28752;48.266;7.402;2022-12-31T15:03:22;99437.91;;;16.26;66.44
43147;BME280;28752;48.266;7.402;2022-12-31T15:05:55;99426.13;;;16.65;61.85
43147;BME280;28752;48.266;7.402;2022-12-31T15:16:07;99416.28;;;16.36;64.48
43147;BME280;28752;48.266;7.402;2022-12-31T15:24:33;99411.72;;;16.06;65.80
43147;BME280;28752;48.266;7.402;2022-12-31T15:27:04;99420.44;;;16.00;66.44
43147;BME280;28752;48.266;7.402;2022-12-31T15:29:32;99409.84;;;15.92;67.31
43147;BME280;28752;48.266;7.402;2022-12-31T15:32:00;99423.94;;;15.86;68.28
43147;BME280;28752;48.266;7.402;2022-12-31T15:34:32;99410.88;;;15.68;69.03
43147;BME280;28752;48.266;7.402;2022-12-31T15:37:02;99417.19;;;15.67;69.34
43147;BME280;28752;48.266;7.402;2022-12-31T15:41:57;99428.31;;;15.55;71.20
43147;BME280;28752;48.266;7.402;2022-12-31T15:46:59;99425.72;;;15.16;72.42
43147;BME280;28752;48.266;7.402;2022-12-31T15:49:29;99445.06;;;15.18;72.60
43147;BME280;28752;48.266;7.402;2022-12-31T15:52:02;99444.22;;;15.17;72.54
43147;BME280;28752;48.266;7.402;2022-12-31T15:56:57;99437.41;;;15.15;71.29
43147;BME280;28752;48.266;7.402;2022-12-31T15:59:22;99437.22;;;15.16;70.59
43147;BME280;28752;48.266;7.402;2022-12-31T16:01:53;99455.75;;;15.41;69.61
43147;BME280;28752;48.266;7.402;2022-12-31T16:04:20;99454.75;;;15.42;69.54
43147;BME280;28752;48.266;7.402;2022-12-31T16:06:48;99444.91;;;15.42;68.87
43147;BME280;28752;48.266;7.402;2022-12-31T16:09:24;99457.59;;;15.40;69.41
43147;BME280;28752;48.266;7.402;2022-12-31T16:11:51;99452.53;;;15.45;69.45
43147;BME280;28752;48.266;7.402;2022-12-31T16:14:23;99462.09;;;15.40;69.78
43147;BME280;28752;48.266;7.402;2022-12-31T16:16:56;99462.50;;;15.28;70.39
43147;BME280;28752;48.266;7.402;2022-12-31T16:19:32;99462.03;;;15.25;70.41
43147;BME280;28752;48.266;7.402;2022-12-31T16:22:01;99465.03;;;15.22;70.54
43147;BME280;28752;48.266;7.402;2022-12-31T16:24:32;99459.06;;;15.20;70.59
43147;BME280;28752;48.266;7.402;2022-12-31T16:27:10;99463.38;;;15.21;70.39
43147;BME280;28752;48.266;7.402;2022-12-31T16:29:41;99462.91;;;15.17;70.87
43147;BME280;28752;48.266;7.402;2022-12-31T16:32:14;99458.44;;;15.09;70.87
43147;BME280;28752;48.266;7.402;2022-12-31T16:34:39;99460.78;;;15.04;71.09
43147;BME280;28752;48.266;7.402;2022-12-31T16:37:12;99470.28;;;15.07;71.07
43147;BME280;28752;48.266;7.402;2022-12-31T16:42:26;99469.00;;;14.95;71.50
43147;BME280;28752;48.266;7.402;2022-12-31T16:44:53;99471.84;;;14.93;71.43
43147;BME280;28752;48.266;7.402;2022-12-31T16:47:32;99474.34;;;14.95;70.67
43147;BME280;28752;48.266;7.402;2022-12-31T16:50:04;99471.69;;;14.86;70.58
43147;BME280;28752;48.266;7.402;2022-12-31T16:52:36;99476.38;;;14.84;70.50
43147;BME280;28752;48.266;7.402;2022-12-31T16:55:13;99481.84;;;14.91;70.46
43147;BME280;28752;48.266;7.402;2022-12-31T16:57:41;99463.72;;;14.78;70.65
43147;BME280;28752;48.266;7.402;2022-12-31T17:00:14;99472.03;;;14.83;70.68
43147;BME280;28752;48.266;7.402;2022-12-31T17:02:41;99478.91;;;14.78;70.91
43147;BME280;28752;48.266;7.402;2022-12-31T17:05:23;99470.38;;;14.82;70.57
43147;BME280;28752;48.266;7.402;2022-12-31T17:07:49;99471.41;;;14.73;71.05
43147;BME280;28752;48.266;7.402;2022-12-31T17:10:21;99476.41;;;14.68;71.55
43147;BME280;28752;48.266;7.402;2022-12-31T17:12:58;99473.63;;;14.61;72.18
43147;BME280;28752;48.266;7.402;2022-12-31T17:15:27;99473.28;;;14.64;71.83
43147;BME280;28752;48.266;7.402;2022-12-31T17:17:56;99461.63;;;14.49;72.61
43147;BME280;28752;48.266;7.402;2022-12-31T17:20:26;99482.25;;;14.55;72.60
43147;BME280;28752;48.266;7.402;2022-12-31T17:22:55;99492.28;;;14.45;73.10
43147;BME280;28752;48.266;7.402;2022-12-31T17:25:25;99486.75;;;14.54;72.57
43147;BME280;28752;48.266;7.402;2022-12-31T17:28:25;99504.91;;;14.51;73.21
43147;BME280;28752;48.266;7.402;2022-12-31T17:30:50;99497.25;;;14.48;73.34
43147;BME280;28752;48.266;7.402;2022-12-31T17:35:44;99504.59;;;14.46;74.61
43147;BME280;28752;48.266;7.402;2022-12-31T17:40:43;99509.56;;;14.57;74.20
43147;BME280;28752;48.266;7.402;2022-12-31T17:43:11;99510.25;;;14.51;74.80
43147;BME280;28752;48.266;7.402;2022-12-31T17:45:38;99511.56;;;14.47;75.47
43147;BME280;28752;48.266;7.402;2022-12-31T17:48:05;99526.88;;;14.53;75.22
43147;BME280;28752;48.266;7.402;2022-12-31T17:50:30;99527.88;;;14.44;75.83
43147;BME280;28752;48.266;7.402;2022-12-31T17:52:58;99524.25;;;14.36;76.29
43147;BME280;28752;48.266;7.402;2022-12-31T17:55:27;99519.44;;;14.32;76.17